createdAt,value
2022-11-21T00:01:18.699Z,31.93
2022-11-21T00:03:47.423Z,29.50
2022-11-21T00:06:18.052Z,34.87
2022-11-21T00:08:46.596Z,28.20
2022-11-21T00:11:15.315Z,39.40
2022-11-21T00:13:43.910Z,29.83
2022-11-21T00:16:14.598Z,30.27
2022-11-21T00:18:44.093Z,28.90
2022-11-21T00:21:14.203Z,32.13
2022-11-21T00:23:44.557Z,35.40
2022-11-21T00:26:14.911Z,36.83
2022-11-21T00:28:43.627Z,31.10
2022-11-21T00:31:20.664Z,34.10
2022-11-21T00:33:48.987Z,38.43
2022-11-21T00:36:17.768Z,30.13
2022-11-21T00:38:47.605Z,28.50
2022-11-21T00:41:16.207Z,30.13
2022-11-21T00:43:44.497Z,35.13
2022-11-21T00:46:13.350Z,35.17
2022-11-21T00:48:41.575Z,35.50
2022-11-21T00:51:10.213Z,33.37
2022-11-21T00:53:38.598Z,33.00
2022-11-21T00:56:08.727Z,30.57
2022-11-21T00:58:37.052Z,36.07
2022-11-21T01:01:07.653Z,39.33
2022-11-21T01:03:36.616Z,31.13
2022-11-21T01:06:06.981Z,36.23
2022-11-21T01:08:36.907Z,31.73
2022-11-21T01:11:06.423Z,36.23
2022-11-21T01:13:36.980Z,28.23
2022-11-21T01:16:06.747Z,34.57
2022-11-21T01:18:35.220Z,31.80
2022-11-21T01:21:04.685Z,31.73
2022-11-21T01:23:32.987Z,33.73
2022-11-21T01:26:04.688Z,28.27
2022-11-21T01:28:33.697Z,36.93
2022-11-21T01:31:07.921Z,29.80
2022-11-21T01:33:36.951Z,35.13
2022-11-21T01:36:10.964Z,30.90
2022-11-21T01:38:39.685Z,37.30
2022-11-21T01:41:08.964Z,41.50
2022-11-21T01:43:37.713Z,33.50
2022-11-21T01:46:14.136Z,36.20
2022-11-21T01:48:47.045Z,38.93
2022-11-21T01:51:20.522Z,34.90
2022-11-21T01:53:53.886Z,37.83
2022-11-21T01:56:23.754Z,38.83
2022-11-21T01:58:55.958Z,32.37
2022-11-21T02:01:26.061Z,39.03
2022-11-21T02:03:56.972Z,42.23
2022-11-21T02:06:26.597Z,36.20
2022-11-21T02:08:55.022Z,39.47
2022-11-21T02:11:31.858Z,37.90
2022-11-21T02:14:01.145Z,38.27
2022-11-21T02:16:31.851Z,33.63
2022-11-21T02:19:00.317Z,43.93
2022-11-21T02:21:38.988Z,41.73
2022-11-21T02:24:14.016Z,30.40
2022-11-21T02:26:44.144Z,42.60
2022-11-21T02:29:12.445Z,40.13
2022-11-21T02:31:41.037Z,37.93
2022-11-21T02:34:09.445Z,40.83
2022-11-21T02:36:44.255Z,35.10
2022-11-21T02:39:17.136Z,36.30
2022-11-21T02:41:54.329Z,34.57
2022-11-21T02:44:28.759Z,37.80
2022-11-21T02:46:58.138Z,31.97
2022-11-21T02:49:39.031Z,36.23
2022-11-21T02:52:07.611Z,36.00
2022-11-21T02:54:35.916Z,44.80
2022-11-21T02:57:05.807Z,35.73
2022-11-21T02:59:34.423Z,38.43
2022-11-21T03:02:02.866Z,34.77
2022-11-21T03:04:31.142Z,32.20
2022-11-21T03:06:59.887Z,51.10
2022-11-21T03:09:28.202Z,32.00
2022-11-21T03:11:57.251Z,38.50
2022-11-21T03:14:27.116Z,37.30
2022-11-21T03:16:55.960Z,34.60
2022-11-21T03:19:24.238Z,39.13
2022-11-21T03:21:52.990Z,37.60
2022-11-21T03:24:21.422Z,39.13
2022-11-21T03:26:50.008Z,40.00
2022-11-21T03:29:18.303Z,36.03
2022-11-21T03:31:48.214Z,35.47
2022-11-21T03:34:16.503Z,39.87
2022-11-21T03:36:45.314Z,40.50
2022-11-21T03:39:13.617Z,39.87
2022-11-21T03:41:42.631Z,34.57
2022-11-21T03:44:12.584Z,39.47
2022-11-21T03:46:43.192Z,33.10
2022-11-21T03:49:14.462Z,42.87
2022-11-21T03:51:43.132Z,40.50
2022-11-21T03:54:12.954Z,37.47
2022-11-21T03:56:41.488Z,41.00
2022-11-21T03:59:09.979Z,37.53
2022-11-21T04:01:39.655Z,35.20
2022-11-21T04:04:08.064Z,45.83
2022-11-21T04:06:37.948Z,38.13
2022-11-21T04:09:06.386Z,34.67
2022-11-21T04:11:34.996Z,32.30
2022-11-21T04:14:03.217Z,32.27
2022-11-21T04:16:31.950Z,37.37
2022-11-21T04:19:00.204Z,37.50
2022-11-21T04:21:28.745Z,36.83
2022-11-21T04:23:58.629Z,37.13
2022-11-21T04:26:27.259Z,34.87
2022-11-21T04:28:55.634Z,37.63
2022-11-21T04:31:24.161Z,26.83
2022-11-21T04:33:52.400Z,40.40
2022-11-21T04:36:20.905Z,38.73
2022-11-21T04:38:49.332Z,51.47
2022-11-21T04:41:19.338Z,46.60
2022-11-21T04:43:47.705Z,48.53
2022-11-21T04:46:16.212Z,42.17
2022-11-21T04:48:44.534Z,56.67
2022-11-21T04:51:13.137Z,115.83
2022-11-21T04:53:43.125Z,178.13
2022-11-21T04:56:14.655Z,187.60
2022-11-21T04:58:44.813Z,167.63
2022-11-21T05:01:13.715Z,161.87
2022-11-21T05:03:42.062Z,157.20
2022-11-21T05:06:10.632Z,144.80
2022-11-21T05:08:38.907Z,133.63
2022-11-21T05:11:24.834Z,170.00
2022-11-21T05:13:55.761Z,138.70
2022-11-21T05:16:24.369Z,160.63
2022-11-21T05:18:52.672Z,179.87
2022-11-21T05:21:21.363Z,175.53
2022-11-21T05:23:49.743Z,169.93
2022-11-21T05:26:18.368Z,170.70
2022-11-21T05:28:48.078Z,154.67
2022-11-21T05:31:18.022Z,178.03
2022-11-21T05:33:46.435Z,111.77
2022-11-21T05:36:14.953Z,99.50
2022-11-21T05:38:43.813Z,98.30
2022-11-21T05:41:12.316Z,108.53
2022-11-21T05:43:49.084Z,93.00
2022-11-21T05:46:20.522Z,97.57
2022-11-21T05:48:50.472Z,98.67
2022-11-21T05:51:20.613Z,99.60
2022-11-21T05:53:50.072Z,88.73
2022-11-21T05:56:20.731Z,89.27
2022-11-21T05:58:49.156Z,106.50
2022-11-21T06:01:39.222Z,75.23
2022-11-21T06:04:06.626Z,98.57
2022-11-21T06:06:35.343Z,108.57
2022-11-21T06:09:04.397Z,114.43
2022-11-21T06:11:33.165Z,118.87
2022-11-21T06:14:01.518Z,105.50
2022-11-21T06:16:31.537Z,102.17
2022-11-21T06:18:59.864Z,107.23
2022-11-21T06:21:30.017Z,102.23
2022-11-21T06:23:59.585Z,82.53
2022-11-21T06:26:29.438Z,90.80
2022-11-21T06:28:57.981Z,71.20
2022-11-21T06:31:27.856Z,82.90
2022-11-21T06:33:59.244Z,75.57
2022-11-21T06:36:28.448Z,74.93
2022-11-21T06:38:57.422Z,77.30
2022-11-21T06:41:30.266Z,69.00
2022-11-21T06:44:01.281Z,64.77
2022-11-21T06:46:30.074Z,76.23
2022-11-21T06:48:59.903Z,65.07
2022-11-21T06:51:28.608Z,74.63
2022-11-21T06:53:58.384Z,75.47
2022-11-21T06:56:28.802Z,59.93
2022-11-21T06:58:57.539Z,51.20
2022-11-21T07:01:26.843Z,61.57
2022-11-21T07:03:55.783Z,70.30
2022-11-21T07:06:26.049Z,60.80
2022-11-21T07:09:25.538Z,58.13
2022-11-21T07:11:44.463Z,63.40
2022-11-21T07:14:11.917Z,52.90
2022-11-21T07:16:40.483Z,56.20
2022-11-21T07:19:08.802Z,54.63
2022-11-21T07:21:38.897Z,66.50
2022-11-21T07:24:07.808Z,56.47
2022-11-21T07:26:36.675Z,55.77
2022-11-21T07:29:05.025Z,50.00
2022-11-21T07:31:33.717Z,52.77
2022-11-21T07:34:02.056Z,55.20
2022-11-21T07:36:32.911Z,60.63
2022-11-21T07:39:04.006Z,52.57
2022-11-21T07:41:32.758Z,67.43
2022-11-21T07:44:01.083Z,53.07
2022-11-21T07:46:29.767Z,67.53
2022-11-21T07:49:02.892Z,43.83
2022-11-21T07:51:32.157Z,57.40
2022-11-21T07:54:02.086Z,61.27
2022-11-21T07:56:30.710Z,52.03
2022-11-21T07:58:59.095Z,61.23
2022-11-21T08:01:27.960Z,61.87
2022-11-21T08:03:56.279Z,52.27
2022-11-21T08:06:24.932Z,55.73
2022-11-21T08:08:54.700Z,55.30
2022-11-21T08:11:25.881Z,52.07
2022-11-21T08:13:54.436Z,50.33
2022-11-21T08:16:27.944Z,53.17
2022-11-21T08:18:56.667Z,59.33
2022-11-21T08:21:25.297Z,60.60
2022-11-21T08:23:54.094Z,63.83
2022-11-21T08:26:24.382Z,46.87
2022-11-21T08:28:58.528Z,57.30
2022-11-21T08:31:28.505Z,55.90
2022-11-21T08:33:58.010Z,53.17
2022-11-21T08:36:26.961Z,59.53
2022-11-21T08:38:55.327Z,61.17
2022-11-21T08:41:42.603Z,53.20
2022-11-21T08:44:14.050Z,67.13
2022-11-21T08:46:43.248Z,54.20
2022-11-21T08:49:11.682Z,54.10
2022-11-21T08:51:40.425Z,54.37
2022-11-21T08:54:09.503Z,53.23
2022-11-21T08:56:39.633Z,50.57
2022-11-21T08:59:07.889Z,70.33
2022-11-21T09:01:36.544Z,58.43
2022-11-21T09:04:05.227Z,62.80
2022-11-21T09:06:34.218Z,63.47
2022-11-21T09:09:02.654Z,60.10
2022-11-21T09:11:31.368Z,56.97
2022-11-21T09:14:18.975Z,59.40
2022-11-21T09:17:04.973Z,52.67
2022-11-21T09:19:33.320Z,53.37
2022-11-21T09:22:02.028Z,59.23
2022-11-21T09:24:30.355Z,55.07
2022-11-21T09:26:58.989Z,82.73
2022-11-21T09:29:29.072Z,64.43
2022-11-21T09:31:57.874Z,71.90
2022-11-21T09:34:26.836Z,55.33
2022-11-21T09:36:56.757Z,44.07
2022-11-21T09:39:25.348Z,45.03
2022-11-21T09:42:07.187Z,47.23
2022-11-21T09:45:05.419Z,51.07
2022-11-21T09:47:37.079Z,53.80
2022-11-21T09:50:17.066Z,57.13
2022-11-21T09:52:50.358Z,54.03
2022-11-21T09:55:25.741Z,47.67
2022-11-21T09:57:54.679Z,48.67
2022-11-21T10:00:26.215Z,52.40
2022-11-21T10:06:44.187Z,47.87
2022-11-21T10:09:20.016Z,46.70
2022-11-21T10:12:15.838Z,53.90
2022-11-21T10:14:56.424Z,50.03
2022-11-21T10:17:36.638Z,48.93
2022-11-21T10:20:22.858Z,42.47
2022-11-21T10:23:08.556Z,54.33
2022-11-21T10:25:39.354Z,55.60
2022-11-21T10:28:18.471Z,47.10
2022-11-21T10:30:48.249Z,55.27
2022-11-21T10:33:27.734Z,48.40
2022-11-21T10:36:01.287Z,47.90
2022-11-21T10:38:30.522Z,56.80
2022-11-21T10:41:06.229Z,50.87
2022-11-21T10:44:00.323Z,54.23
2022-11-21T10:46:29.094Z,50.67
2022-11-21T10:49:01.782Z,56.57
2022-11-21T10:51:42.002Z,47.63
2022-11-21T10:54:30.170Z,57.87
2022-11-21T10:57:03.496Z,52.80
2022-11-21T10:59:32.398Z,51.30
2022-11-21T11:02:02.930Z,53.83
2022-11-21T11:04:43.877Z,64.30
2022-11-21T11:07:24.402Z,62.03
2022-11-21T11:09:53.666Z,61.23
2022-11-21T11:12:47.447Z,45.53
2022-11-21T11:15:21.686Z,54.53
2022-11-21T11:17:56.421Z,57.80
2022-11-21T11:20:37.962Z,54.70
2022-11-21T11:23:28.314Z,52.37
2022-11-21T11:25:58.452Z,47.77
2022-11-21T11:28:28.580Z,52.60
2022-11-21T11:30:59.094Z,52.13
2022-11-21T11:33:36.436Z,64.87
2022-11-21T11:36:14.556Z,64.80
2022-11-21T11:38:47.368Z,60.07
2022-11-21T11:41:26.109Z,54.40
2022-11-21T11:44:21.859Z,56.83
2022-11-21T11:47:17.148Z,62.23
2022-11-21T11:50:07.981Z,58.77
2022-11-21T11:52:50.775Z,58.70
2022-11-21T11:55:25.196Z,55.90
2022-11-21T11:57:55.937Z,52.67
2022-11-21T12:00:31.990Z,57.13
2022-11-21T12:03:05.599Z,51.80
2022-11-21T12:05:35.200Z,59.93
2022-11-21T12:11:32.565Z,57.00
2022-11-21T12:14:12.238Z,58.93
2022-11-21T12:16:42.671Z,51.37
2022-11-21T12:19:16.476Z,53.20
2022-11-21T12:21:46.091Z,54.40
2022-11-21T12:24:21.014Z,58.03
2022-11-21T12:26:58.306Z,51.70
2022-11-21T12:29:39.001Z,48.97
2022-11-21T12:32:25.623Z,58.30
2022-11-21T12:35:10.072Z,47.77
2022-11-21T12:37:49.274Z,50.10
2022-11-21T12:40:34.682Z,58.53
2022-11-21T12:43:18.475Z,54.00
2022-11-21T12:45:52.389Z,54.90
2022-11-21T12:48:53.283Z,45.73
2022-11-21T12:52:13.280Z,54.97
2022-11-21T12:55:05.654Z,57.23
2022-11-21T12:57:52.011Z,56.47
2022-11-21T13:00:26.571Z,53.53
2022-11-21T13:03:22.571Z,55.20
2022-11-21T13:05:54.855Z,59.00
2022-11-21T13:08:27.740Z,64.13
2022-11-21T13:11:16.819Z,53.70
2022-11-21T13:13:51.636Z,52.77
2022-11-21T13:16:36.922Z,61.37
2022-11-21T13:19:23.449Z,63.23
2022-11-21T13:21:54.279Z,71.10
2022-11-21T13:24:59.729Z,64.93
2022-11-21T13:27:37.947Z,59.77
2022-11-21T13:30:25.918Z,70.23
2022-11-21T13:32:56.422Z,63.47
2022-11-21T13:36:04.348Z,69.87
2022-11-21T13:38:34.181Z,59.80
2022-11-21T13:41:34.958Z,66.00
2022-11-21T13:44:31.156Z,62.03
2022-11-21T13:47:02.253Z,60.63
2022-11-21T13:49:37.436Z,68.37
2022-11-21T13:52:12.495Z,61.53
2022-11-21T13:55:14.568Z,58.77
2022-11-21T13:57:56.431Z,71.67
2022-11-21T14:00:40.338Z,57.73
2022-11-21T14:03:50.513Z,66.50
2022-11-21T14:06:36.466Z,59.03
2022-11-21T14:09:24.439Z,69.23
2022-11-21T14:11:57.007Z,63.50
2022-11-21T14:14:31.628Z,68.00
2022-11-21T14:17:32.617Z,63.70
2022-11-21T14:20:03.689Z,75.70
2022-11-21T14:22:45.226Z,59.60
2022-11-21T14:25:20.144Z,74.67
2022-11-21T14:27:52.453Z,66.80
2022-11-21T14:30:38.652Z,60.70
2022-11-21T14:33:29.756Z,168.83
2022-11-21T14:36:05.994Z,111.83
2022-11-21T14:38:41.690Z,108.47
2022-11-21T14:41:25.956Z,303.63
2022-11-21T14:44:07.548Z,268.53
2022-11-21T14:46:37.829Z,227.30
2022-11-21T14:49:29.625Z,275.07
2022-11-21T14:52:07.436Z,438.93
2022-11-21T14:55:13.550Z,400.10
2022-11-21T14:57:41.770Z,387.13
2022-11-21T15:00:36.117Z,365.13
2022-11-21T15:03:04.652Z,198.07
2022-11-21T15:08:59.373Z,220.40
2022-11-21T15:11:16.233Z,209.23
2022-11-21T15:14:12.638Z,207.50
2022-11-21T15:16:35.266Z,133.90
2022-11-21T15:19:10.277Z,176.80
2022-11-21T15:21:46.126Z,167.87
2022-11-21T15:24:18.807Z,132.00
2022-11-21T15:26:49.123Z,120.13
2022-11-21T15:29:22.645Z,120.43
2022-11-21T15:32:14.061Z,126.43
2022-11-21T15:34:44.824Z,108.00
2022-11-21T15:37:17.304Z,113.97
2022-11-21T15:39:48.277Z,119.17
2022-11-21T15:42:38.185Z,110.17
2022-11-21T15:45:24.018Z,94.50
2022-11-21T15:47:53.084Z,102.47
2022-11-21T15:50:24.368Z,88.63
2022-11-21T15:52:53.721Z,76.67
2022-11-21T15:55:25.956Z,95.77
2022-11-21T15:57:55.917Z,93.37
2022-11-21T16:00:24.399Z,99.73
2022-11-21T16:02:53.172Z,103.80
2022-11-21T16:05:21.574Z,83.77
2022-11-21T16:07:50.596Z,89.37
2022-11-21T16:10:24.332Z,81.43
2022-11-21T16:12:57.372Z,80.03
2022-11-21T16:15:25.978Z,95.90
2022-11-21T16:17:54.654Z,82.80
2022-11-21T16:20:23.236Z,95.23
2022-11-21T16:22:51.978Z,85.30
2022-11-21T16:25:20.459Z,88.70
2022-11-21T16:27:49.362Z,93.83
2022-11-21T16:30:19.948Z,85.07
2022-11-21T16:32:48.564Z,98.57
2022-11-21T16:35:17.090Z,82.93
2022-11-21T16:37:47.108Z,77.07
2022-11-21T16:40:15.725Z,88.67
2022-11-21T16:42:44.587Z,75.30
2022-11-21T16:45:12.875Z,78.17
2022-11-21T16:47:48.425Z,81.23
2022-11-21T16:50:17.628Z,90.23
2022-11-21T16:52:46.207Z,89.37
2022-11-21T16:55:14.852Z,80.03
2022-11-21T16:57:43.464Z,84.10
2022-11-21T17:00:13.650Z,68.60
2022-11-21T17:02:43.765Z,80.40
2022-11-21T17:05:12.096Z,73.50
2022-11-21T17:07:40.774Z,71.43
2022-11-21T17:10:09.946Z,79.63
2022-11-21T17:12:39.657Z,113.00
2022-11-21T17:15:10.264Z,76.30
2022-11-21T17:17:39.563Z,71.50
2022-11-21T17:20:10.952Z,84.67
2022-11-21T17:22:39.589Z,76.63
2022-11-21T17:25:08.567Z,78.43
2022-11-21T17:27:37.327Z,88.07
2022-11-21T17:30:06.508Z,76.47
2022-11-21T17:32:35.833Z,85.03
2022-11-21T17:35:04.623Z,65.43
2022-11-21T17:37:34.597Z,82.23
2022-11-21T17:40:05.955Z,76.03
2022-11-21T17:42:34.602Z,93.83
2022-11-21T17:45:02.918Z,82.50
2022-11-21T17:47:34.237Z,77.57
2022-11-21T17:50:05.980Z,80.63
2022-11-21T17:52:36.678Z,78.07
2022-11-21T17:55:05.446Z,91.17
2022-11-21T17:57:34.101Z,75.40
2022-11-21T18:00:02.487Z,80.03
2022-11-21T18:02:31.346Z,80.80
2022-11-21T18:05:00.347Z,81.17
2022-11-21T18:07:30.083Z,65.13
2022-11-21T18:10:20.380Z,81.97
2022-11-21T18:12:48.649Z,75.07
2022-11-21T18:15:17.065Z,78.43
2022-11-21T18:17:47.029Z,83.33
2022-11-21T18:20:15.768Z,75.67
2022-11-21T18:22:45.697Z,77.17
2022-11-21T18:25:15.408Z,81.47
2022-11-21T18:27:47.536Z,72.70
2022-11-21T18:30:18.596Z,68.53
2022-11-21T18:32:49.754Z,78.20
2022-11-21T18:35:18.101Z,73.00
2022-11-21T18:37:47.002Z,81.20
2022-11-21T18:40:17.071Z,76.13
2022-11-21T18:42:47.046Z,81.47
2022-11-21T18:45:15.686Z,80.57
2022-11-21T18:47:44.150Z,60.80
2022-11-21T18:50:12.428Z,70.03
2022-11-21T18:52:46.428Z,74.63
2022-11-21T18:55:16.544Z,74.23
2022-11-21T18:57:45.110Z,82.23
2022-11-21T19:00:14.347Z,78.63
2022-11-21T19:02:42.960Z,73.47
2022-11-21T19:05:13.945Z,75.60
2022-11-21T19:07:45.001Z,79.03
2022-11-21T19:10:41.530Z,77.03
2022-11-21T19:13:03.319Z,94.83
2022-11-21T19:15:32.208Z,85.80
2022-11-21T19:18:00.899Z,76.83
2022-11-21T19:20:29.164Z,80.10
2022-11-21T19:22:57.709Z,96.67
2022-11-21T19:25:26.035Z,88.80
2022-11-21T19:27:54.767Z,71.33
2022-11-21T19:30:24.714Z,69.17
2022-11-21T19:32:53.273Z,82.30
2022-11-21T19:35:23.646Z,81.33
2022-11-21T19:37:52.901Z,74.10
2022-11-21T19:40:21.376Z,88.17
2022-11-21T19:42:49.923Z,72.40
2022-11-21T19:45:18.687Z,89.57
2022-11-21T19:47:50.156Z,81.20
2022-11-21T19:50:18.580Z,72.07
2022-11-21T19:52:47.184Z,70.17
2022-11-21T19:55:15.742Z,85.40
2022-11-21T19:57:44.371Z,85.27
2022-11-21T20:00:13.744Z,84.60
2022-11-21T20:02:42.438Z,77.77
2022-11-21T20:05:12.258Z,82.50
2022-11-21T20:07:40.870Z,86.00
2022-11-21T20:10:09.696Z,88.37
2022-11-21T20:12:38.906Z,75.97
2022-11-21T20:15:08.255Z,72.47
2022-11-21T20:17:36.890Z,79.70
2022-11-21T20:20:06.147Z,81.03
2022-11-21T20:22:36.679Z,87.60
2022-11-21T20:25:05.535Z,86.10
2022-11-21T20:27:34.196Z,81.13
2022-11-21T20:30:02.949Z,85.17
2022-11-21T20:32:33.573Z,75.30
2022-11-21T20:35:01.922Z,76.90
2022-11-21T20:37:30.537Z,70.33
2022-11-21T20:40:00.141Z,75.33
2022-11-21T20:42:28.724Z,92.90
2022-11-21T20:45:54.541Z,84.93
2022-11-21T20:47:45.521Z,75.47
2022-11-21T20:50:31.349Z,70.33
2022-11-21T20:55:52.341Z,70.23
2022-11-21T20:58:20.918Z,69.30
2022-11-21T21:00:49.121Z,78.40
2022-11-21T21:03:17.952Z,69.33
2022-11-21T21:05:46.271Z,80.00
2022-11-21T21:08:14.913Z,78.17
2022-11-21T21:11:04.483Z,70.50
2022-11-21T21:13:33.788Z,71.10
2022-11-21T21:16:06.365Z,70.43
2022-11-21T21:18:35.879Z,78.80
2022-11-21T21:21:16.942Z,72.00
2022-11-21T21:23:47.931Z,72.73
2022-11-21T21:26:19.029Z,74.00
2022-11-21T21:28:49.606Z,71.00
2022-11-21T21:31:19.593Z,79.27
2022-11-21T21:33:48.269Z,82.70
2022-11-21T21:36:18.687Z,71.40
2022-11-21T21:38:51.548Z,57.30
2022-11-21T21:41:20.255Z,68.93
2022-11-21T21:43:52.503Z,72.73
2022-11-21T21:46:22.441Z,79.70
2022-11-21T21:48:54.728Z,62.20
2022-11-21T21:51:24.770Z,68.27
2022-11-21T21:53:54.385Z,77.43
2022-11-21T21:56:24.565Z,72.13
2022-11-21T21:58:55.419Z,71.57
2022-11-21T22:01:25.204Z,69.57
2022-11-21T22:03:55.743Z,77.37
2022-11-21T22:06:24.276Z,79.97
2022-11-21T22:08:53.487Z,74.93
2022-11-21T22:11:23.290Z,69.10
2022-11-21T22:13:55.494Z,79.03
2022-11-21T22:16:23.984Z,71.13
2022-11-21T22:18:52.727Z,71.23
2022-11-21T22:21:23.778Z,79.73
2022-11-21T22:26:41.364Z,62.20
2022-11-21T22:29:11.680Z,63.57
2022-11-21T22:31:39.922Z,79.03
2022-11-21T22:34:10.797Z,75.97
2022-11-21T22:36:39.087Z,72.37
2022-11-21T22:39:08.066Z,76.33
2022-11-21T22:41:36.401Z,73.43
2022-11-21T22:44:05.171Z,77.60
2022-11-21T22:46:34.846Z,75.57
2022-11-21T22:49:03.724Z,67.27
2022-11-21T22:51:32.107Z,65.43
2022-11-21T22:54:00.741Z,67.57
2022-11-21T22:56:29.169Z,67.87
2022-11-21T22:58:57.967Z,72.30
2022-11-21T23:01:27.305Z,78.80
2022-11-21T23:03:57.524Z,77.43
2022-11-21T23:06:27.678Z,73.47
2022-11-21T23:08:57.454Z,68.73
2022-11-21T23:11:28.271Z,66.73
2022-11-21T23:13:57.525Z,78.87
2022-11-21T23:16:26.686Z,72.50
2022-11-21T23:18:57.140Z,66.13
2022-11-21T23:21:25.503Z,77.83
2022-11-21T23:23:54.372Z,72.83
2022-11-21T23:26:22.627Z,74.93
2022-11-21T23:28:51.241Z,73.33
2022-11-21T23:31:19.616Z,78.00
2022-11-21T23:33:48.278Z,76.27
2022-11-21T23:36:17.986Z,71.80
2022-11-21T23:38:46.544Z,67.37
2022-11-21T23:41:14.892Z,91.17
2022-11-21T23:43:43.487Z,71.20
2022-11-21T23:46:11.876Z,73.20
2022-11-21T23:48:40.765Z,77.27
2022-11-21T23:51:09.189Z,72.13
2022-11-21T23:53:39.152Z,74.30
2022-11-21T23:56:07.579Z,73.33
2022-11-21T23:58:36.330Z,87.93
